Disclaimer

Please do not use the information listed here in-flight or in-navigation, as they are not provided to us by the airports but are provided by volunteers, so they might be outdated.

Search


Regions


Airport information page

Radio informations:
Tower (TWR) - 125.625 MHz
GCA - 123.3 MHz
BRICY APP - 122.7 MHz

Airport informations:
Latitude: 48° 03' 29.31" N
Longitude: 001° 22' 35.85" E
Elevation: 433 feet - 132 meters
Operating hours: Remarks
Operating agency: Military
Timezone: UTC+1(+2DT) - Last Sunday in March to last Sunday in October
Fuel: Jet A1+, Jet A1 with icing inhibitor.

100/130 MIL Spec, low lead, aviation gasoline (BLUE)

Runway information:
10/28 - 7552 x 148 feet< - >2302 x 45 meters

Recent METARs:
LFOC 210300Z AUTO 15001KT 3200 BR NSC M03/M04 Q1008
LFOC 210330Z AUTO 15005KT 4100 BR NSC M04/M04 Q1009
LFOC 210400Z AUTO 15003KT 4100 BR NSC M03/M04 Q1009

Airport on the map: